LIBDLATI

Guest
Details From LIBD - Bari Palese Macchie
To LATI - Tirana Rinas
Flight Number -
Tags generated
Created
Modified
Stats Distance 135 nm / 250 km
Max Altitude 15,700 ft / 4,785 m
Waypoints 3
Social Downloads 0
Likes 0
Share VATSIM

Download

Looking for another format? Having issues loading an existing format? Contact us
Advertisement - Login to hide

Notes

Basic altitude profile: - Ascent Rate: 2500ft/min - Ascent Speed: 250kts - Cruise Altitude: 27000ft - Cruise Speed: 320kts - Descent Rate: 1500ft/min - Descent Speed: 250kts Options: - Use NATs: yes - Use PACOTS: yes - Use low airways: yes - Use high airways: yes

Route

LIBD URENA LATI

ID Type Via Altitude Latitude Longitude Leg Dist Tot Dist Heading (true) Name
O LIBD APT - 0 ft / 0 m 41.13787˚ 16.75832˚ - 0 nm - Bari Palese Macchie
URENA FIX - 15,700 ft / 4,785 m 41.27694˚ 18.09694˚ 61 nm 61 nm 82° / 83° -
O LATI APT - 0 ft / 0 m 41.41473˚ 19.72057˚ 73 nm 134 nm 83° / 84° Tirana Rinas

Altitude Profile

Advertisement - Login to hide

LIBD

Details ICAO LIBD (BRI)
Name Bari Palese Macchie
Region Italy
Timezone Europe/Rome (UTC+1.0)
Stats Elevation 177 ft / 54 m (AMSL)
Location 41.137865° 16.758318°
Runways 1
Magnetic Variation 3.738° E

METAR

LIBD 170120Z VRB03KT CAVOK 08/04 Q1009

Decode

TAF

TAF LIBD 162300Z 1700/1724 VRB05KT 9999 SCT030 BECMG 1704/1706 30015G25KT

Decode

Departure Runways

ID Width Length Bearing (true) Bearing (mag) Surface Threshold Offset Overrun Length
07 148 ft / 45 m 9,262 ft / 2,823 m 69.39° 65.65° Asphalt 1,257 ft / 383 m 0 ft / 0 m
25 148 ft / 45 m 9,262 ft / 2,823 m 249.42° 245.68° Asphalt 0 ft / 0 m 194 ft / 59 m

LATI

Details ICAO LATI (TIA)
Name Tirana Rinas
Region Albania
Timezone Europe/Tirane (UTC+1.0)
Stats Elevation 126 ft / 38 m (AMSL)
Location 41.414732° 19.720569°
Runways 1
Magnetic Variation 4.233° E

METAR

LATI 170150Z 18003KT 9999 BKN070 09/06 Q1008 NOSIG

Decode

TAF

TAF LATI 161700Z 1618/1718 18006KT 8000 -RA SCT020 BKN040 OVC060 TEMPO 1706/1716 5000 SHRA SCT015CB

Decode

Destination Runways

ID Width Length Bearing (true) Bearing (mag) Surface Threshold Offset Overrun Length
18 148 ft / 45 m 8,984 ft / 2,738 m 174.31° 170.08° Asphalt 500 ft / 152 m 0 ft / 0 m
36 148 ft / 45 m 8,984 ft / 2,738 m 354.31° 350.08° Asphalt 500 ft / 152 m 0 ft / 0 m

Popular Alternatives